sensor_id;sensor_type;location;lat;lon;timestamp;P1;durP1;ratioP1;P2;durP2;ratioP2
13279;SDS011;6708;49.814;8.652;2023-07-13T00:01:11;0.60;;;0.60;;
13279;SDS011;6708;49.814;8.652;2023-07-13T00:03:40;2.27;;;0.80;;
13279;SDS011;6708;49.814;8.652;2023-07-13T00:06:09;1.57;;;0.70;;
13279;SDS011;6708;49.814;8.652;2023-07-13T00:08:37;2.03;;;0.83;;
13279;SDS011;6708;49.814;8.652;2023-07-13T00:11:06;0.70;;;0.70;;
13279;SDS011;6708;49.814;8.652;2023-07-13T00:13:35;1.00;;;0.90;;
13279;SDS011;6708;49.814;8.652;2023-07-13T00:16:07;0.73;;;0.70;;
13279;SDS011;6708;49.814;8.652;2023-07-13T00:18:35;0.87;;;0.60;;
13279;SDS011;6708;49.814;8.652;2023-07-13T00:21:04;0.77;;;0.50;;
13279;SDS011;6708;49.814;8.652;2023-07-13T00:23:33;0.70;;;0.70;;
13279;SDS011;6708;49.814;8.652;2023-07-13T00:26:02;2.10;;;1.10;;
13279;SDS011;6708;49.814;8.652;2023-07-13T00:28:31;4.10;;;1.13;;
13279;SDS011;6708;49.814;8.652;2023-07-13T00:31:00;0.67;;;0.67;;
13279;SDS011;6708;49.814;8.652;2023-07-13T00:33:31;1.53;;;0.80;;
13279;SDS011;6708;49.814;8.652;2023-07-13T00:35:59;1.70;;;0.83;;
13279;SDS011;6708;49.814;8.652;2023-07-13T00:38:28;1.03;;;0.87;;
13279;SDS011;6708;49.814;8.652;2023-07-13T00:40:56;3.87;;;1.00;;
13279;SDS011;6708;49.814;8.652;2023-07-13T00:43:26;1.37;;;0.77;;
13279;SDS011;6708;49.814;8.652;2023-07-13T00:48:43;3.87;;;1.00;;
13279;SDS011;6708;49.814;8.652;2023-07-13T00:51:14;1.40;;;0.93;;
13279;SDS011;6708;49.814;8.652;2023-07-13T00:53:44;0.50;;;0.50;;
13279;SDS011;6708;49.814;8.652;2023-07-13T00:56:12;1.50;;;0.87;;
13279;SDS011;6708;49.814;8.652;2023-07-13T00:58:41;0.73;;;0.73;;
13279;SDS011;6708;49.814;8.652;2023-07-13T01:01:09;0.90;;;0.83;;
13279;SDS011;6708;49.814;8.652;2023-07-13T01:03:38;0.73;;;0.73;;
13279;SDS011;6708;49.814;8.652;2023-07-13T01:06:10;2.43;;;1.00;;
13279;SDS011;6708;49.814;8.652;2023-07-13T01:08:39;1.80;;;0.97;;
13279;SDS011;6708;49.814;8.652;2023-07-13T01:11:07;2.20;;;1.00;;
13279;SDS011;6708;49.814;8.652;2023-07-13T01:13:36;0.67;;;0.67;;
13279;SDS011;6708;49.814;8.652;2023-07-13T01:16:05;0.80;;;0.80;;
13279;SDS011;6708;49.814;8.652;2023-07-13T01:18:41;1.17;;;0.93;;
13279;SDS011;6708;49.814;8.652;2023-07-13T01:21:12;0.73;;;0.73;;
13279;SDS011;6708;49.814;8.652;2023-07-13T01:23:40;0.83;;;0.83;;
13279;SDS011;6708;49.814;8.652;2023-07-13T01:26:09;0.77;;;0.77;;
13279;SDS011;6708;49.814;8.652;2023-07-13T01:28:37;0.60;;;0.60;;
13279;SDS011;6708;49.814;8.652;2023-07-13T01:31:07;0.97;;;0.97;;
13279;SDS011;6708;49.814;8.652;2023-07-13T01:33:36;1.33;;;1.20;;
13279;SDS011;6708;49.814;8.652;2023-07-13T01:36:05;0.73;;;0.70;;
13279;SDS011;6708;49.814;8.652;2023-07-13T01:38:36;1.83;;;0.80;;
13279;SDS011;6708;49.814;8.652;2023-07-13T01:41:06;1.23;;;0.90;;
13279;SDS011;6708;49.814;8.652;2023-07-13T01:43:35;0.83;;;0.83;;
13279;SDS011;6708;49.814;8.652;2023-07-13T01:46:05;0.80;;;0.80;;
13279;SDS011;6708;49.814;8.652;2023-07-13T01:48:34;0.93;;;0.90;;
13279;SDS011;6708;49.814;8.652;2023-07-13T01:51:02;1.40;;;1.00;;
13279;SDS011;6708;49.814;8.652;2023-07-13T01:53:31;0.80;;;0.80;;
13279;SDS011;6708;49.814;8.652;2023-07-13T01:56:03;1.80;;;0.73;;
13279;SDS011;6708;49.814;8.652;2023-07-13T01:58:32;0.90;;;0.90;;
13279;SDS011;6708;49.814;8.652;2023-07-13T02:01:00;1.30;;;1.20;;
13279;SDS011;6708;49.814;8.652;2023-07-13T02:03:29;1.47;;;1.07;;
13279;SDS011;6708;49.814;8.652;2023-07-13T02:05:57;2.77;;;1.40;;
13279;SDS011;6708;49.814;8.652;2023-07-13T02:08:26;4.70;;;1.20;;
13279;SDS011;6708;49.814;8.652;2023-07-13T02:10:54;1.80;;;1.10;;
13279;SDS011;6708;49.814;8.652;2023-07-13T02:13:25;0.90;;;0.90;;
13279;SDS011;6708;49.814;8.652;2023-07-13T02:15:53;2.00;;;1.10;;
13279;SDS011;6708;49.814;8.652;2023-07-13T02:18:22;1.17;;;1.10;;
13279;SDS011;6708;49.814;8.652;2023-07-13T02:20:50;1.03;;;1.03;;
13279;SDS011;6708;49.814;8.652;2023-07-13T02:23:18;1.03;;;1.03;;
13279;SDS011;6708;49.814;8.652;2023-07-13T02:25:47;1.07;;;0.93;;
13279;SDS011;6708;49.814;8.652;2023-07-13T02:28:15;1.07;;;1.00;;
13279;SDS011;6708;49.814;8.652;2023-07-13T02:30:46;1.43;;;1.17;;
13279;SDS011;6708;49.814;8.652;2023-07-13T02:33:15;1.00;;;1.00;;
13279;SDS011;6708;49.814;8.652;2023-07-13T02:35:43;1.00;;;1.00;;
13279;SDS011;6708;49.814;8.652;2023-07-13T02:38:11;0.83;;;0.83;;
13279;SDS011;6708;49.814;8.652;2023-07-13T02:40:40;1.83;;;1.20;;
13279;SDS011;6708;49.814;8.652;2023-07-13T02:43:08;1.10;;;1.00;;
13279;SDS011;6708;49.814;8.652;2023-07-13T02:45:36;0.90;;;0.80;;
13279;SDS011;6708;49.814;8.652;2023-07-13T02:48:07;1.70;;;1.33;;
13279;SDS011;6708;49.814;8.652;2023-07-13T02:50:35;1.10;;;1.10;;
13279;SDS011;6708;49.814;8.652;2023-07-13T02:53:04;1.00;;;1.00;;
13279;SDS011;6708;49.814;8.652;2023-07-13T02:55:32;1.10;;;1.10;;
13279;SDS011;6708;49.814;8.652;2023-07-13T02:58:01;1.43;;;1.13;;
13279;SDS011;6708;49.814;8.652;2023-07-13T03:00:31;1.63;;;1.10;;
13279;SDS011;6708;49.814;8.652;2023-07-13T03:02:59;2.30;;;1.23;;
13279;SDS011;6708;49.814;8.652;2023-07-13T03:05:30;1.60;;;1.50;;
13279;SDS011;6708;49.814;8.652;2023-07-13T03:07:59;1.30;;;1.20;;
13279;SDS011;6708;49.814;8.652;2023-07-13T03:10:28;1.10;;;1.10;;
13279;SDS011;6708;49.814;8.652;2023-07-13T03:12:57;1.37;;;1.37;;
13279;SDS011;6708;49.814;8.652;2023-07-13T03:15:26;1.47;;;1.40;;
13279;SDS011;6708;49.814;8.652;2023-07-13T03:17:56;1.00;;;1.00;;
13279;SDS011;6708;49.814;8.652;2023-07-13T03:20:25;1.13;;;1.13;;
13279;SDS011;6708;49.814;8.652;2023-07-13T03:22:56;1.30;;;1.20;;
13279;SDS011;6708;49.814;8.652;2023-07-13T03:25:26;0.90;;;0.90;;
13279;SDS011;6708;49.814;8.652;2023-07-13T03:27:54;3.60;;;1.13;;
13279;SDS011;6708;49.814;8.652;2023-07-13T03:30:22;1.00;;;1.00;;
13279;SDS011;6708;49.814;8.652;2023-07-13T03:32:51;1.83;;;1.43;;
13279;SDS011;6708;49.814;8.652;2023-07-13T03:35:19;1.30;;;1.03;;
13279;SDS011;6708;49.814;8.652;2023-07-13T03:37:48;1.50;;;1.40;;
13279;SDS011;6708;49.814;8.652;2023-07-13T03:40:21;2.03;;;0.97;;
13279;SDS011;6708;49.814;8.652;2023-07-13T03:42:50;2.30;;;1.27;;
13279;SDS011;6708;49.814;8.652;2023-07-13T03:45:19;1.93;;;1.60;;
13279;SDS011;6708;49.814;8.652;2023-07-13T03:47:47;1.37;;;1.27;;
13279;SDS011;6708;49.814;8.652;2023-07-13T03:50:17;1.43;;;1.40;;
13279;SDS011;6708;49.814;8.652;2023-07-13T03:52:45;1.30;;;1.20;;
13279;SDS011;6708;49.814;8.652;2023-07-13T03:55:15;1.43;;;1.23;;
13279;SDS011;6708;49.814;8.652;2023-07-13T03:57:46;1.30;;;1.20;;
13279;SDS011;6708;49.814;8.652;2023-07-13T04:00:15;1.27;;;1.27;;
13279;SDS011;6708;49.814;8.652;2023-07-13T04:02:43;1.60;;;1.60;;
13279;SDS011;6708;49.814;8.652;2023-07-13T04:05:13;1.37;;;1.37;;
13279;SDS011;6708;49.814;8.652;2023-07-13T04:07:44;1.20;;;1.20;;
13279;SDS011;6708;49.814;8.652;2023-07-13T04:10:12;2.30;;;1.37;;
13279;SDS011;6708;49.814;8.652;2023-07-13T04:12:40;1.27;;;1.17;;
13279;SDS011;6708;49.814;8.652;2023-07-13T04:15:11;1.33;;;1.20;;
13279;SDS011;6708;49.814;8.652;2023-07-13T04:17:40;1.73;;;1.63;;
13279;SDS011;6708;49.814;8.652;2023-07-13T04:20:08;4.37;;;1.40;;
13279;SDS011;6708;49.814;8.652;2023-07-13T04:22:37;1.43;;;1.30;;
13279;SDS011;6708;49.814;8.652;2023-07-13T04:25:06;1.70;;;1.60;;
13279;SDS011;6708;49.814;8.652;2023-07-13T04:27:35;1.47;;;1.37;;
13279;SDS011;6708;49.814;8.652;2023-07-13T04:30:05;1.70;;;1.60;;
13279;SDS011;6708;49.814;8.652;2023-07-13T04:32:37;5.97;;;1.50;;
13279;SDS011;6708;49.814;8.652;2023-07-13T04:35:06;1.30;;;1.30;;
13279;SDS011;6708;49.814;8.652;2023-07-13T04:37:35;1.13;;;1.13;;
13279;SDS011;6708;49.814;8.652;2023-07-13T04:40:04;1.50;;;1.40;;
13279;SDS011;6708;49.814;8.652;2023-07-13T04:42:37;1.10;;;1.10;;
13279;SDS011;6708;49.814;8.652;2023-07-13T04:45:06;1.60;;;1.50;;
13279;SDS011;6708;49.814;8.652;2023-07-13T04:47:37;2.40;;;1.40;;
13279;SDS011;6708;49.814;8.652;2023-07-13T04:50:06;1.73;;;1.63;;
13279;SDS011;6708;49.814;8.652;2023-07-13T04:52:36;1.27;;;1.27;;
13279;SDS011;6708;49.814;8.652;2023-07-13T04:55:04;1.23;;;1.23;;
13279;SDS011;6708;49.814;8.652;2023-07-13T04:57:33;2.60;;;1.60;;
13279;SDS011;6708;49.814;8.652;2023-07-13T05:00:02;2.60;;;1.60;;
13279;SDS011;6708;49.814;8.652;2023-07-13T05:02:31;1.90;;;1.47;;
13279;SDS011;6708;49.814;8.652;2023-07-13T05:05:03;1.03;;;1.03;;
13279;SDS011;6708;49.814;8.652;2023-07-13T05:07:31;1.50;;;1.40;;
13279;SDS011;6708;49.814;8.652;2023-07-13T05:10:00;1.03;;;1.03;;
13279;SDS011;6708;49.814;8.652;2023-07-13T05:12:29;3.03;;;1.60;;
13279;SDS011;6708;49.814;8.652;2023-07-13T05:14:58;1.47;;;1.40;;
13279;SDS011;6708;49.814;8.652;2023-07-13T05:17:26;1.67;;;1.43;;
13279;SDS011;6708;49.814;8.652;2023-07-13T05:19:55;3.40;;;1.20;;
13279;SDS011;6708;49.814;8.652;2023-07-13T05:22:26;1.80;;;1.10;;
13279;SDS011;6708;49.814;8.652;2023-07-13T05:24:54;1.37;;;1.33;;
13279;SDS011;6708;49.814;8.652;2023-07-13T05:27:23;4.23;;;1.37;;
13279;SDS011;6708;49.814;8.652;2023-07-13T05:29:51;1.00;;;1.00;;
13279;SDS011;6708;49.814;8.652;2023-07-13T05:32:19;1.47;;;1.13;;
13279;SDS011;6708;49.814;8.652;2023-07-13T05:34:48;1.73;;;1.40;;
13279;SDS011;6708;49.814;8.652;2023-07-13T05:37:16;1.20;;;1.10;;
13279;SDS011;6708;49.814;8.652;2023-07-13T05:39:47;2.10;;;1.00;;
13279;SDS011;6708;49.814;8.652;2023-07-13T05:42:16;8.33;;;1.13;;
13279;SDS011;6708;49.814;8.652;2023-07-13T05:44:44;2.00;;;1.27;;
13279;SDS011;6708;49.814;8.652;2023-07-13T05:47:12;1.73;;;1.10;;
13279;SDS011;6708;49.814;8.652;2023-07-13T05:49:41;2.00;;;1.03;;
13279;SDS011;6708;49.814;8.652;2023-07-13T05:52:09;2.00;;;1.60;;
13279;SDS011;6708;49.814;8.652;2023-07-13T05:54:37;1.57;;;0.87;;
13279;SDS011;6708;49.814;8.652;2023-07-13T05:57:08;0.80;;;0.80;;
13279;SDS011;6708;49.814;8.652;2023-07-13T05:59:37;4.77;;;1.40;;
13279;SDS011;6708;49.814;8.652;2023-07-13T06:02:07;1.90;;;1.10;;
13279;SDS011;6708;49.814;8.652;2023-07-13T06:04:36;1.60;;;1.13;;
13279;SDS011;6708;49.814;8.652;2023-07-13T06:07:05;6.87;;;1.20;;
13279;SDS011;6708;49.814;8.652;2023-07-13T06:09:33;1.10;;;1.03;;
13279;SDS011;6708;49.814;8.652;2023-07-13T06:12:02;1.37;;;1.27;;
13279;SDS011;6708;49.814;8.652;2023-07-13T06:14:33;0.80;;;0.80;;
13279;SDS011;6708;49.814;8.652;2023-07-13T06:17:01;2.10;;;0.80;;
13279;SDS011;6708;49.814;8.652;2023-07-13T06:19:30;1.03;;;0.83;;
13279;SDS011;6708;49.814;8.652;2023-07-13T06:21:58;1.33;;;0.80;;
13279;SDS011;6708;49.814;8.652;2023-07-13T06:24:27;0.87;;;0.87;;
13279;SDS011;6708;49.814;8.652;2023-07-13T06:26:55;1.90;;;0.70;;
13279;SDS011;6708;49.814;8.652;2023-07-13T06:29:23;2.83;;;0.93;;
13279;SDS011;6708;49.814;8.652;2023-07-13T06:31:54;1.60;;;0.70;;
13279;SDS011;6708;49.814;8.652;2023-07-13T06:34:23;2.47;;;0.60;;
13279;SDS011;6708;49.814;8.652;2023-07-13T06:36:51;0.70;;;0.70;;
13279;SDS011;6708;49.814;8.652;2023-07-13T06:39:23;1.30;;;0.87;;
13279;SDS011;6708;49.814;8.652;2023-07-13T06:41:51;2.13;;;0.90;;
13279;SDS011;6708;49.814;8.652;2023-07-13T06:44:19;0.90;;;0.90;;
13279;SDS011;6708;49.814;8.652;2023-07-13T06:46:48;0.70;;;0.70;;
13279;SDS011;6708;49.814;8.652;2023-07-13T06:49:18;1.03;;;1.03;;
13279;SDS011;6708;49.814;8.652;2023-07-13T06:51:47;1.23;;;0.60;;
13279;SDS011;6708;49.814;8.652;2023-07-13T06:54:15;2.87;;;0.70;;
13279;SDS011;6708;49.814;8.652;2023-07-13T06:56:44;2.17;;;0.80;;
13279;SDS011;6708;49.814;8.652;2023-07-13T06:59:12;7.80;;;0.70;;
13279;SDS011;6708;49.814;8.652;2023-07-13T07:01:40;1.10;;;1.00;;
13279;SDS011;6708;49.814;8.652;2023-07-13T07:04:09;1.90;;;0.73;;
13279;SDS011;6708;49.814;8.652;2023-07-13T07:06:39;1.33;;;0.77;;
13279;SDS011;6708;49.814;8.652;2023-07-13T07:09:08;0.77;;;0.77;;
13279;SDS011;6708;49.814;8.652;2023-07-13T07:11:36;2.97;;;1.03;;
13279;SDS011;6708;49.814;8.652;2023-07-13T07:14:05;2.77;;;0.87;;
13279;SDS011;6708;49.814;8.652;2023-07-13T07:16:33;1.03;;;0.80;;
13279;SDS011;6708;49.814;8.652;2023-07-13T07:19:02;0.70;;;0.50;;
13279;SDS011;6708;49.814;8.652;2023-07-13T07:21:30;1.07;;;0.73;;
13279;SDS011;6708;49.814;8.652;2023-07-13T07:24:01;1.80;;;0.60;;
13279;SDS011;6708;49.814;8.652;2023-07-13T07:26:30;0.40;;;0.40;;
13279;SDS011;6708;49.814;8.652;2023-07-13T07:28:58;0.83;;;0.50;;
13279;SDS011;6708;49.814;8.652;2023-07-13T07:31:27;0.77;;;0.77;;
13279;SDS011;6708;49.814;8.652;2023-07-13T07:33:55;2.17;;;0.70;;
13279;SDS011;6708;49.814;8.652;2023-07-13T07:36:24;1.23;;;0.57;;
13279;SDS011;6708;49.814;8.652;2023-07-13T07:38:53;3.23;;;0.73;;
13279;SDS011;6708;49.814;8.652;2023-07-13T07:41:24;2.28;;;0.88;;
13279;SDS011;6708;49.814;8.652;2023-07-13T07:43:52;1.55;;;1.10;;
13279;SDS011;6708;49.814;8.652;2023-07-13T07:46:20;0.90;;;0.90;;
13279;SDS011;6708;49.814;8.652;2023-07-13T07:48:49;1.13;;;0.68;;
13279;SDS011;6708;49.814;8.652;2023-07-13T07:51:17;1.65;;;0.98;;
13279;SDS011;6708;49.814;8.652;2023-07-13T07:53:45;1.38;;;0.57;;
13279;SDS011;6708;49.814;8.652;2023-07-13T07:56:14;0.90;;;0.45;;
13279;SDS011;6708;49.814;8.652;2023-07-13T07:58:46;1.25;;;0.70;;
13279;SDS011;6708;49.814;8.652;2023-07-13T08:01:14;2.17;;;0.90;;
13279;SDS011;6708;49.814;8.652;2023-07-13T08:03:43;0.88;;;0.65;;
13279;SDS011;6708;49.814;8.652;2023-07-13T08:06:11;1.27;;;0.70;;
13279;SDS011;6708;49.814;8.652;2023-07-13T08:08:40;1.80;;;1.10;;
13279;SDS011;6708;49.814;8.652;2023-07-13T08:11:08;1.55;;;0.80;;
13279;SDS011;6708;49.814;8.652;2023-07-13T08:13:37;5.50;;;0.70;;
13279;SDS011;6708;49.814;8.652;2023-07-13T08:16:08;3.25;;;0.65;;
13279;SDS011;6708;49.814;8.652;2023-07-13T08:18:37;0.90;;;0.77;;
13279;SDS011;6708;49.814;8.652;2023-07-13T08:21:05;0.85;;;0.70;;
13279;SDS011;6708;49.814;8.652;2023-07-13T08:23:34;1.48;;;0.65;;
13279;SDS011;6708;49.814;8.652;2023-07-13T08:26:04;1.88;;;0.98;;
13279;SDS011;6708;49.814;8.652;2023-07-13T08:28:32;0.75;;;0.60;;
13279;SDS011;6708;49.814;8.652;2023-07-13T08:31:01;1.30;;;0.57;;
13279;SDS011;6708;49.814;8.652;2023-07-13T08:33:33;0.85;;;0.60;;
13279;SDS011;6708;49.814;8.652;2023-07-13T08:36:03;4.28;;;0.85;;
13279;SDS011;6708;49.814;8.652;2023-07-13T08:38:33;0.80;;;0.80;;
13279;SDS011;6708;49.814;8.652;2023-07-13T08:41:03;1.30;;;0.88;;
13279;SDS011;6708;49.814;8.652;2023-07-13T08:43:37;0.82;;;0.52;;
13279;SDS011;6708;49.814;8.652;2023-07-13T08:46:08;1.16;;;0.82;;
13279;SDS011;6708;49.814;8.652;2023-07-13T08:48:42;1.42;;;0.73;;
13279;SDS011;6708;49.814;8.652;2023-07-13T08:51:18;0.65;;;0.65;;
13279;SDS011;6708;49.814;8.652;2023-07-13T08:53:59;0.43;;;0.43;;
13279;SDS011;6708;49.814;8.652;2023-07-13T08:56:29;3.58;;;0.75;;
13279;SDS011;6708;49.814;8.652;2023-07-13T08:58:58;1.23;;;0.73;;
13279;SDS011;6708;49.814;8.652;2023-07-13T09:01:45;2.42;;;0.30;;
13279;SDS011;6708;49.814;8.652;2023-07-13T09:04:32;1.95;;;0.75;;
13279;SDS011;6708;49.814;8.652;2023-07-13T09:07:05;2.50;;;0.57;;
13279;SDS011;6708;49.814;8.652;2023-07-13T09:09:37;1.17;;;0.75;;
13279;SDS011;6708;49.814;8.652;2023-07-13T09:12:11;3.50;;;0.90;;
13279;SDS011;6708;49.814;8.652;2023-07-13T09:14:43;2.15;;;0.47;;
13279;SDS011;6708;49.814;8.652;2023-07-13T09:17:14;2.90;;;0.60;;
13279;SDS011;6708;49.814;8.652;2023-07-13T09:19:49;1.48;;;0.52;;
13279;SDS011;6708;49.814;8.652;2023-07-13T09:22:22;1.92;;;0.60;;
13279;SDS011;6708;49.814;8.652;2023-07-13T09:24:55;0.63;;;0.60;;
13279;SDS011;6708;49.814;8.652;2023-07-13T09:27:27;1.10;;;0.55;;
13279;SDS011;6708;49.814;8.652;2023-07-13T09:30:11;4.35;;;0.80;;
13279;SDS011;6708;49.814;8.652;2023-07-13T09:32:51;0.55;;;0.55;;
13279;SDS011;6708;49.814;8.652;2023-07-13T09:35:24;0.95;;;0.77;;
13279;SDS011;6708;49.814;8.652;2023-07-13T09:37:59;0.65;;;0.65;;
13279;SDS011;6708;49.814;8.652;2023-07-13T09:40:38;0.60;;;0.43;;
13279;SDS011;6708;49.814;8.652;2023-07-13T09:43:11;1.00;;;0.40;;
13279;SDS011;6708;49.814;8.652;2023-07-13T09:45:41;1.63;;;0.63;;
13279;SDS011;6708;49.814;8.652;2023-07-13T09:48:14;1.48;;;0.47;;
13279;SDS011;6708;49.814;8.652;2023-07-13T09:50:45;2.30;;;0.60;;
13279;SDS011;6708;49.814;8.652;2023-07-13T09:53:14;0.73;;;0.40;;
13279;SDS011;6708;49.814;8.652;2023-07-13T09:55:45;2.97;;;0.50;;
13279;SDS011;6708;49.814;8.652;2023-07-13T09:58:15;2.17;;;0.77;;
13279;SDS011;6708;49.814;8.652;2023-07-13T10:00:53;4.03;;;0.77;;
13279;SDS011;6708;49.814;8.652;2023-07-13T10:03:23;0.93;;;0.50;;
13279;SDS011;6708;49.814;8.652;2023-07-13T10:05:55;1.23;;;0.80;;
13279;SDS011;6708;49.814;8.652;2023-07-13T10:08:29;1.35;;;1.25;;
13279;SDS011;6708;49.814;8.652;2023-07-13T10:10:59;0.40;;;0.40;;
13279;SDS011;6708;49.814;8.652;2023-07-13T10:13:31;0.52;;;0.50;;
13279;SDS011;6708;49.814;8.652;2023-07-13T10:16:02;0.75;;;0.75;;
13279;SDS011;6708;49.814;8.652;2023-07-13T10:18:35;0.90;;;0.60;;
13279;SDS011;6708;49.814;8.652;2023-07-13T10:21:14;1.70;;;0.63;;
13279;SDS011;6708;49.814;8.652;2023-07-13T10:23:43;0.80;;;0.40;;
13279;SDS011;6708;49.814;8.652;2023-07-13T10:26:15;1.27;;;0.98;;
13279;SDS011;6708;49.814;8.652;2023-07-13T10:28:45;0.85;;;0.73;;
13279;SDS011;6708;49.814;8.652;2023-07-13T10:31:17;2.05;;;0.65;;
13279;SDS011;6708;49.814;8.652;2023-07-13T10:33:46;1.23;;;0.68;;
13279;SDS011;6708;49.814;8.652;2023-07-13T10:36:27;1.35;;;0.60;;
13279;SDS011;6708;49.814;8.652;2023-07-13T10:38:57;0.32;;;0.32;;
13279;SDS011;6708;49.814;8.652;2023-07-13T10:41:28;0.77;;;0.68;;
13279;SDS011;6708;49.814;8.652;2023-07-13T10:43:58;1.27;;;0.60;;
13279;SDS011;6708;49.814;8.652;2023-07-13T10:46:28;0.75;;;0.60;;
13279;SDS011;6708;49.814;8.652;2023-07-13T10:48:57;0.65;;;0.50;;
13279;SDS011;6708;49.814;8.652;2023-07-13T10:51:29;0.55;;;0.45;;
13279;SDS011;6708;49.814;8.652;2023-07-13T10:54:11;0.95;;;0.50;;
13279;SDS011;6708;49.814;8.652;2023-07-13T10:56:48;2.00;;;0.70;;
13279;SDS011;6708;49.814;8.652;2023-07-13T10:59:20;1.85;;;0.70;;
13279;SDS011;6708;49.814;8.652;2023-07-13T11:01:56;1.10;;;1.00;;
13279;SDS011;6708;49.814;8.652;2023-07-13T11:04:26;0.57;;;0.57;;
13279;SDS011;6708;49.814;8.652;2023-07-13T11:06:59;0.70;;;0.70;;
13279;SDS011;6708;49.814;8.652;2023-07-13T11:09:39;0.57;;;0.57;;
13279;SDS011;6708;49.814;8.652;2023-07-13T11:12:26;1.20;;;0.65;;
13279;SDS011;6708;49.814;8.652;2023-07-13T11:15:05;1.38;;;0.38;;
13279;SDS011;6708;49.814;8.652;2023-07-13T11:17:46;1.13;;;0.60;;
13279;SDS011;6708;49.814;8.652;2023-07-13T11:20:23;3.25;;;1.08;;
13279;SDS011;6708;49.814;8.652;2023-07-13T11:25:58;0.50;;;0.50;;
13279;SDS011;6708;49.814;8.652;2023-07-13T11:28:29;0.68;;;0.55;;
13279;SDS011;6708;49.814;8.652;2023-07-13T11:31:00;0.60;;;0.50;;
13279;SDS011;6708;49.814;8.652;2023-07-13T11:33:28;0.85;;;0.85;;
13279;SDS011;6708;49.814;8.652;2023-07-13T11:35:59;1.20;;;0.57;;
13279;SDS011;6708;49.814;8.652;2023-07-13T11:38:32;1.17;;;0.63;;
13279;SDS011;6708;49.814;8.652;2023-07-13T11:41:04;1.92;;;0.60;;
13279;SDS011;6708;49.814;8.652;2023-07-13T11:43:35;0.30;;;0.30;;
13279;SDS011;6708;49.814;8.652;2023-07-13T11:46:12;0.77;;;0.77;;
13279;SDS011;6708;49.814;8.652;2023-07-13T11:48:42;1.02;;;0.68;;
13279;SDS011;6708;49.814;8.652;2023-07-13T11:51:15;3.42;;;0.82;;
13279;SDS011;6708;49.814;8.652;2023-07-13T11:53:50;2.28;;;0.77;;
13279;SDS011;6708;49.814;8.652;2023-07-13T11:56:19;0.88;;;0.57;;
13279;SDS011;6708;49.814;8.652;2023-07-13T11:58:48;1.15;;;0.70;;
13279;SDS011;6708;49.814;8.652;2023-07-13T12:01:18;2.08;;;0.70;;
13279;SDS011;6708;49.814;8.652;2023-07-13T12:03:49;0.85;;;0.43;;
13279;SDS011;6708;49.814;8.652;2023-07-13T12:06:21;2.00;;;0.80;;
13279;SDS011;6708;49.814;8.652;2023-07-13T12:08:58;4.57;;;0.50;;
13279;SDS011;6708;49.814;8.652;2023-07-13T12:11:28;0.75;;;0.75;;
13279;SDS011;6708;49.814;8.652;2023-07-13T12:13:58;0.77;;;0.75;;
13279;SDS011;6708;49.814;8.652;2023-07-13T12:16:28;0.57;;;0.57;;
13279;SDS011;6708;49.814;8.652;2023-07-13T12:18:58;0.50;;;0.50;;
13279;SDS011;6708;49.814;8.652;2023-07-13T12:21:30;0.60;;;0.60;;
13279;SDS011;6708;49.814;8.652;2023-07-13T12:24:03;2.28;;;0.77;;
13279;SDS011;6708;49.814;8.652;2023-07-13T12:26:32;1.00;;;0.70;;
13279;SDS011;6708;49.814;8.652;2023-07-13T12:29:01;0.93;;;0.65;;
13279;SDS011;6708;49.814;8.652;2023-07-13T12:31:34;2.05;;;0.57;;
13279;SDS011;6708;49.814;8.652;2023-07-13T12:34:06;0.70;;;0.70;;
13279;SDS011;6708;49.814;8.652;2023-07-13T12:36:37;0.57;;;0.50;;
13279;SDS011;6708;49.814;8.652;2023-07-13T12:39:16;0.47;;;0.38;;
13279;SDS011;6708;49.814;8.652;2023-07-13T12:41:47;1.67;;;0.45;;
13279;SDS011;6708;49.814;8.652;2023-07-13T12:44:16;1.02;;;0.93;;
13279;SDS011;6708;49.814;8.652;2023-07-13T12:46:52;0.60;;;0.60;;
13279;SDS011;6708;49.814;8.652;2023-07-13T12:49:23;0.50;;;0.50;;
13279;SDS011;6708;49.814;8.652;2023-07-13T12:51:58;1.77;;;0.75;;
13279;SDS011;6708;49.814;8.652;2023-07-13T12:54:30;2.50;;;0.55;;
13279;SDS011;6708;49.814;8.652;2023-07-13T12:56:59;0.80;;;0.68;;
13279;SDS011;6708;49.814;8.652;2023-07-13T12:59:31;0.43;;;0.43;;
13279;SDS011;6708;49.814;8.652;2023-07-13T13:02:16;0.98;;;0.85;;
13279;SDS011;6708;49.814;8.652;2023-07-13T13:04:50;0.80;;;0.73;;
13279;SDS011;6708;49.814;8.652;2023-07-13T13:07:20;2.05;;;0.80;;
13279;SDS011;6708;49.814;8.652;2023-07-13T13:09:51;0.90;;;0.68;;
13279;SDS011;6708;49.814;8.652;2023-07-13T13:12:21;0.50;;;0.50;;
13279;SDS011;6708;49.814;8.652;2023-07-13T13:14:50;1.95;;;0.80;;
13279;SDS011;6708;49.814;8.652;2023-07-13T13:17:19;0.75;;;0.70;;
13279;SDS011;6708;49.814;8.652;2023-07-13T13:19:50;1.95;;;0.65;;
13279;SDS011;6708;49.814;8.652;2023-07-13T13:22:19;0.50;;;0.50;;
13279;SDS011;6708;49.814;8.652;2023-07-13T13:24:50;1.02;;;0.90;;
13279;SDS011;6708;49.814;8.652;2023-07-13T13:27:19;2.38;;;0.82;;
13279;SDS011;6708;49.814;8.652;2023-07-13T13:29:50;0.70;;;0.50;;
13279;SDS011;6708;49.814;8.652;2023-07-13T13:32:19;1.75;;;0.68;;
13279;SDS011;6708;49.814;8.652;2023-07-13T13:34:48;1.88;;;0.93;;
13279;SDS011;6708;49.814;8.652;2023-07-13T13:37:17;0.95;;;0.70;;
13279;SDS011;6708;49.814;8.652;2023-07-13T13:39:47;0.90;;;0.60;;
13279;SDS011;6708;49.814;8.652;2023-07-13T13:42:20;2.30;;;1.20;;
13279;SDS011;6708;49.814;8.652;2023-07-13T13:44:50;1.95;;;0.80;;
13279;SDS011;6708;49.814;8.652;2023-07-13T13:47:25;1.15;;;0.75;;
13279;SDS011;6708;49.814;8.652;2023-07-13T13:49:58;0.95;;;0.52;;
13279;SDS011;6708;49.814;8.652;2023-07-13T13:52:26;2.50;;;0.80;;
13279;SDS011;6708;49.814;8.652;2023-07-13T13:54:57;2.45;;;0.85;;
13279;SDS011;6708;49.814;8.652;2023-07-13T13:57:26;0.68;;;0.68;;
13279;SDS011;6708;49.814;8.652;2023-07-13T13:59:55;3.05;;;0.75;;
13279;SDS011;6708;49.814;8.652;2023-07-13T14:02:24;1.85;;;1.20;;
13279;SDS011;6708;49.814;8.652;2023-07-13T14:04:54;0.75;;;0.60;;
13279;SDS011;6708;49.814;8.652;2023-07-13T14:07:22;2.75;;;0.57;;
13279;SDS011;6708;49.814;8.652;2023-07-13T14:09:51;1.05;;;0.90;;
13279;SDS011;6708;49.814;8.652;2023-07-13T14:12:22;0.77;;;0.50;;
13279;SDS011;6708;49.814;8.652;2023-07-13T14:14:53;8.77;;;0.93;;
13279;SDS011;6708;49.814;8.652;2023-07-13T14:17:22;1.00;;;0.50;;
13279;SDS011;6708;49.814;8.652;2023-07-13T14:19:52;1.02;;;0.73;;
13279;SDS011;6708;49.814;8.652;2023-07-13T14:22:22;1.30;;;0.77;;
13279;SDS011;6708;49.814;8.652;2023-07-13T14:24:51;0.50;;;0.47;;
13279;SDS011;6708;49.814;8.652;2023-07-13T14:27:23;0.85;;;0.63;;
13279;SDS011;6708;49.814;8.652;2023-07-13T14:29:52;0.85;;;0.63;;
13279;SDS011;6708;49.814;8.652;2023-07-13T14:32:21;1.05;;;0.57;;
13279;SDS011;6708;49.814;8.652;2023-07-13T14:34:50;0.93;;;0.63;;
13279;SDS011;6708;49.814;8.652;2023-07-13T14:37:18;1.45;;;0.75;;
13279;SDS011;6708;49.814;8.652;2023-07-13T14:39:47;1.38;;;0.63;;
13279;SDS011;6708;49.814;8.652;2023-07-13T14:42:16;0.70;;;0.70;;
13279;SDS011;6708;49.814;8.652;2023-07-13T14:44:47;1.00;;;0.55;;
13279;SDS011;6708;49.814;8.652;2023-07-13T14:47:15;0.60;;;0.60;;
13279;SDS011;6708;49.814;8.652;2023-07-13T14:49:44;0.50;;;0.50;;
13279;SDS011;6708;49.814;8.652;2023-07-13T14:52:14;0.90;;;0.80;;
13279;SDS011;6708;49.814;8.652;2023-07-13T14:54:45;4.15;;;0.68;;
13279;SDS011;6708;49.814;8.652;2023-07-13T14:57:15;4.50;;;0.70;;
13279;SDS011;6708;49.814;8.652;2023-07-13T14:59:46;3.03;;;0.90;;
13279;SDS011;6708;49.814;8.652;2023-07-13T15:02:16;2.83;;;1.13;;
13279;SDS011;6708;49.814;8.652;2023-07-13T15:04:47;0.50;;;0.50;;
13279;SDS011;6708;49.814;8.652;2023-07-13T15:07:15;1.17;;;0.87;;
13279;SDS011;6708;49.814;8.652;2023-07-13T15:09:46;1.65;;;0.93;;
13279;SDS011;6708;49.814;8.652;2023-07-13T15:12:14;0.63;;;0.63;;
13279;SDS011;6708;49.814;8.652;2023-07-13T15:14:42;0.55;;;0.50;;
13279;SDS011;6708;49.814;8.652;2023-07-13T15:17:18;0.50;;;0.50;;
13279;SDS011;6708;49.814;8.652;2023-07-13T15:19:51;0.63;;;0.63;;
13279;SDS011;6708;49.814;8.652;2023-07-13T15:22:21;0.50;;;0.50;;
13279;SDS011;6708;49.814;8.652;2023-07-13T15:24:49;2.22;;;0.60;;